sensor_id;sensor_type;location;lat;lon;timestamp;P1;durP1;ratioP1;P2;durP2;ratioP2
14125;SDS011;7141;49.484;11.242;2022-11-23T00:01:20;9.70;;;4.20;;
14125;SDS011;7141;49.484;11.242;2022-11-23T00:03:47;4.37;;;2.13;;
14125;SDS011;7141;49.484;11.242;2022-11-23T00:06:14;6.93;;;3.57;;
14125;SDS011;7141;49.484;11.242;2022-11-23T00:08:40;5.63;;;2.63;;
14125;SDS011;7141;49.484;11.242;2022-11-23T00:11:06;4.53;;;2.63;;
14125;SDS011;7141;49.484;11.242;2022-11-23T00:13:32;6.77;;;2.37;;
14125;SDS011;7141;49.484;11.242;2022-11-23T00:16:12;4.67;;;2.30;;
14125;SDS011;7141;49.484;11.242;2022-11-23T00:18:38;7.00;;;2.73;;
14125;SDS011;7141;49.484;11.242;2022-11-23T00:21:07;5.57;;;2.97;;
14125;SDS011;7141;49.484;11.242;2022-11-23T00:23:33;8.40;;;3.30;;
14125;SDS011;7141;49.484;11.242;2022-11-23T00:25:59;5.93;;;2.47;;
14125;SDS011;7141;49.484;11.242;2022-11-23T00:28:25;4.60;;;2.43;;
14125;SDS011;7141;49.484;11.242;2022-11-23T00:30:51;5.63;;;2.30;;
14125;SDS011;7141;49.484;11.242;2022-11-23T00:33:17;7.27;;;2.63;;
14125;SDS011;7141;49.484;11.242;2022-11-23T00:35:43;7.03;;;2.60;;
14125;SDS011;7141;49.484;11.242;2022-11-23T00:38:09;8.80;;;2.57;;
14125;SDS011;7141;49.484;11.242;2022-11-23T00:40:35;3.97;;;2.20;;
14125;SDS011;7141;49.484;11.242;2022-11-23T00:43:01;6.53;;;2.10;;
14125;SDS011;7141;49.484;11.242;2022-11-23T00:45:27;6.90;;;2.57;;
14125;SDS011;7141;49.484;11.242;2022-11-23T00:47:53;5.27;;;2.37;;
14125;SDS011;7141;49.484;11.242;2022-11-23T00:50:19;7.00;;;2.63;;
14125;SDS011;7141;49.484;11.242;2022-11-23T00:52:45;6.13;;;2.10;;
14125;SDS011;7141;49.484;11.242;2022-11-23T00:55:11;8.77;;;2.60;;
14125;SDS011;7141;49.484;11.242;2022-11-23T00:57:37;7.53;;;2.40;;
14125;SDS011;7141;49.484;11.242;2022-11-23T01:00:04;4.80;;;2.53;;
14125;SDS011;7141;49.484;11.242;2022-11-23T01:02:32;4.77;;;2.33;;
14125;SDS011;7141;49.484;11.242;2022-11-23T01:04:58;6.60;;;2.40;;
14125;SDS011;7141;49.484;11.242;2022-11-23T01:07:24;6.63;;;2.73;;
14125;SDS011;7141;49.484;11.242;2022-11-23T01:09:54;5.27;;;2.53;;
14125;SDS011;7141;49.484;11.242;2022-11-23T01:12:20;4.67;;;2.17;;
14125;SDS011;7141;49.484;11.242;2022-11-23T01:14:46;5.53;;;2.37;;
14125;SDS011;7141;49.484;11.242;2022-11-23T01:17:12;5.77;;;2.60;;
14125;SDS011;7141;49.484;11.242;2022-11-23T01:19:38;6.10;;;2.80;;
14125;SDS011;7141;49.484;11.242;2022-11-23T01:22:04;3.30;;;2.50;;
14125;SDS011;7141;49.484;11.242;2022-11-23T01:24:29;6.07;;;2.60;;
14125;SDS011;7141;49.484;11.242;2022-11-23T01:26:55;6.83;;;2.60;;
14125;SDS011;7141;49.484;11.242;2022-11-23T01:29:22;5.10;;;2.50;;
14125;SDS011;7141;49.484;11.242;2022-11-23T01:31:48;6.07;;;2.40;;
14125;SDS011;7141;49.484;11.242;2022-11-23T01:34:14;7.27;;;3.80;;
14125;SDS011;7141;49.484;11.242;2022-11-23T01:36:40;8.07;;;3.37;;
14125;SDS011;7141;49.484;11.242;2022-11-23T01:39:07;5.37;;;2.93;;
14125;SDS011;7141;49.484;11.242;2022-11-23T01:41:34;6.13;;;2.87;;
14125;SDS011;7141;49.484;11.242;2022-11-23T01:44:00;8.20;;;2.70;;
14125;SDS011;7141;49.484;11.242;2022-11-23T01:46:26;7.03;;;2.93;;
14125;SDS011;7141;49.484;11.242;2022-11-23T01:51:25;7.30;;;3.10;;
14125;SDS011;7141;49.484;11.242;2022-11-23T01:53:53;6.47;;;3.47;;
14125;SDS011;7141;49.484;11.242;2022-11-23T01:56:20;7.20;;;2.73;;
14125;SDS011;7141;49.484;11.242;2022-11-23T01:58:49;5.13;;;2.80;;
14125;SDS011;7141;49.484;11.242;2022-11-23T02:01:16;5.57;;;2.63;;
14125;SDS011;7141;49.484;11.242;2022-11-23T02:03:42;3.60;;;2.50;;
14125;SDS011;7141;49.484;11.242;2022-11-23T02:06:12;7.97;;;3.13;;
14125;SDS011;7141;49.484;11.242;2022-11-23T02:08:38;7.57;;;3.27;;
14125;SDS011;7141;49.484;11.242;2022-11-23T02:11:04;7.90;;;4.37;;
14125;SDS011;7141;49.484;11.242;2022-11-23T02:13:30;7.77;;;3.67;;
14125;SDS011;7141;49.484;11.242;2022-11-23T02:15:56;9.33;;;3.90;;
14125;SDS011;7141;49.484;11.242;2022-11-23T02:18:24;10.30;;;4.20;;
14125;SDS011;7141;49.484;11.242;2022-11-23T02:20:52;9.87;;;4.80;;
14125;SDS011;7141;49.484;11.242;2022-11-23T02:26:04;6.03;;;4.10;;
14125;SDS011;7141;49.484;11.242;2022-11-23T02:28:36;11.37;;;4.70;;
14125;SDS011;7141;49.484;11.242;2022-11-23T02:31:02;8.30;;;4.20;;
14125;SDS011;7141;49.484;11.242;2022-11-23T02:33:28;8.30;;;4.67;;
14125;SDS011;7141;49.484;11.242;2022-11-23T02:35:56;6.67;;;4.03;;
14125;SDS011;7141;49.484;11.242;2022-11-23T02:38:23;9.87;;;4.53;;
14125;SDS011;7141;49.484;11.242;2022-11-23T02:40:50;10.00;;;4.70;;
14125;SDS011;7141;49.484;11.242;2022-11-23T02:43:16;12.53;;;5.50;;
14125;SDS011;7141;49.484;11.242;2022-11-23T02:48:08;6.97;;;4.30;;
14125;SDS011;7141;49.484;11.242;2022-11-23T02:50:33;10.30;;;4.53;;
14125;SDS011;7141;49.484;11.242;2022-11-23T02:52:59;6.07;;;4.30;;
14125;SDS011;7141;49.484;11.242;2022-11-23T02:55:25;11.33;;;4.77;;
14125;SDS011;7141;49.484;11.242;2022-11-23T02:57:51;8.27;;;4.33;;
14125;SDS011;7141;49.484;11.242;2022-11-23T03:00:17;9.13;;;4.20;;
14125;SDS011;7141;49.484;11.242;2022-11-23T03:02:43;7.17;;;3.90;;
14125;SDS011;7141;49.484;11.242;2022-11-23T03:05:09;9.77;;;3.70;;
14125;SDS011;7141;49.484;11.242;2022-11-23T03:07:35;9.53;;;3.90;;
14125;SDS011;7141;49.484;11.242;2022-11-23T03:10:01;8.47;;;3.57;;
14125;SDS011;7141;49.484;11.242;2022-11-23T03:12:27;8.03;;;4.00;;
14125;SDS011;7141;49.484;11.242;2022-11-23T03:14:53;9.17;;;3.73;;
14125;SDS011;7141;49.484;11.242;2022-11-23T03:17:19;4.63;;;2.70;;
14125;SDS011;7141;49.484;11.242;2022-11-23T03:19:45;6.97;;;3.50;;
14125;SDS011;7141;49.484;11.242;2022-11-23T03:22:11;9.87;;;3.37;;
14125;SDS011;7141;49.484;11.242;2022-11-23T03:24:37;6.97;;;3.10;;
14125;SDS011;7141;49.484;11.242;2022-11-23T03:27:03;5.03;;;3.27;;
14125;SDS011;7141;49.484;11.242;2022-11-23T03:29:29;7.87;;;3.10;;
14125;SDS011;7141;49.484;11.242;2022-11-23T03:31:55;5.60;;;3.13;;
14125;SDS011;7141;49.484;11.242;2022-11-23T03:34:21;8.53;;;3.00;;
14125;SDS011;7141;49.484;11.242;2022-11-23T03:36:47;5.57;;;3.20;;
14125;SDS011;7141;49.484;11.242;2022-11-23T03:39:13;6.07;;;3.03;;
14125;SDS011;7141;49.484;11.242;2022-11-23T03:41:39;10.73;;;3.17;;
14125;SDS011;7141;49.484;11.242;2022-11-23T03:44:05;7.90;;;3.87;;
14125;SDS011;7141;49.484;11.242;2022-11-23T03:46:31;7.07;;;3.13;;
14125;SDS011;7141;49.484;11.242;2022-11-23T03:48:57;6.37;;;3.07;;
14125;SDS011;7141;49.484;11.242;2022-11-23T03:51:23;4.60;;;3.03;;
14125;SDS011;7141;49.484;11.242;2022-11-23T03:53:50;5.40;;;3.40;;
14125;SDS011;7141;49.484;11.242;2022-11-23T03:56:15;7.27;;;3.27;;
14125;SDS011;7141;49.484;11.242;2022-11-23T03:58:41;8.27;;;3.80;;
14125;SDS011;7141;49.484;11.242;2022-11-23T04:01:07;6.70;;;3.37;;
14125;SDS011;7141;49.484;11.242;2022-11-23T04:03:33;5.50;;;3.00;;
14125;SDS011;7141;49.484;11.242;2022-11-23T04:05:59;8.30;;;3.40;;
14125;SDS011;7141;49.484;11.242;2022-11-23T04:08:25;6.10;;;3.63;;
14125;SDS011;7141;49.484;11.242;2022-11-23T04:10:55;4.83;;;3.17;;
14125;SDS011;7141;49.484;11.242;2022-11-23T04:13:21;9.03;;;3.77;;
14125;SDS011;7141;49.484;11.242;2022-11-23T04:15:47;7.70;;;3.50;;
14125;SDS011;7141;49.484;11.242;2022-11-23T04:18:13;5.77;;;3.23;;
14125;SDS011;7141;49.484;11.242;2022-11-23T04:20:39;9.50;;;3.37;;
14125;SDS011;7141;49.484;11.242;2022-11-23T04:23:05;5.57;;;2.93;;
14125;SDS011;7141;49.484;11.242;2022-11-23T04:25:31;9.63;;;2.97;;
14125;SDS011;7141;49.484;11.242;2022-11-23T04:27:57;10.20;;;3.20;;
14125;SDS011;7141;49.484;11.242;2022-11-23T04:30:23;6.57;;;2.70;;
14125;SDS011;7141;49.484;11.242;2022-11-23T04:32:49;5.97;;;3.47;;
14125;SDS011;7141;49.484;11.242;2022-11-23T04:35:15;4.83;;;2.83;;
14125;SDS011;7141;49.484;11.242;2022-11-23T04:37:41;6.13;;;3.00;;
14125;SDS011;7141;49.484;11.242;2022-11-23T04:40:07;10.97;;;3.30;;
14125;SDS011;7141;49.484;11.242;2022-11-23T04:42:33;6.73;;;3.53;;
14125;SDS011;7141;49.484;11.242;2022-11-23T04:44:59;6.53;;;3.40;;
14125;SDS011;7141;49.484;11.242;2022-11-23T04:47:25;6.63;;;3.10;;
14125;SDS011;7141;49.484;11.242;2022-11-23T04:49:51;7.03;;;2.97;;
14125;SDS011;7141;49.484;11.242;2022-11-23T04:52:17;9.63;;;4.27;;
14125;SDS011;7141;49.484;11.242;2022-11-23T04:54:43;17.67;;;8.10;;
14125;SDS011;7141;49.484;11.242;2022-11-23T04:57:09;7.30;;;4.27;;
14125;SDS011;7141;49.484;11.242;2022-11-23T04:59:35;9.77;;;4.47;;
14125;SDS011;7141;49.484;11.242;2022-11-23T05:02:01;13.67;;;5.17;;
14125;SDS011;7141;49.484;11.242;2022-11-23T05:04:27;6.70;;;3.97;;
14125;SDS011;7141;49.484;11.242;2022-11-23T05:06:53;8.60;;;3.33;;
14125;SDS011;7141;49.484;11.242;2022-11-23T05:09:19;6.67;;;3.40;;
14125;SDS011;7141;49.484;11.242;2022-11-23T05:11:45;9.90;;;4.03;;
14125;SDS011;7141;49.484;11.242;2022-11-23T05:14:12;8.17;;;3.43;;
14125;SDS011;7141;49.484;11.242;2022-11-23T05:16:38;7.60;;;3.37;;
14125;SDS011;7141;49.484;11.242;2022-11-23T05:19:04;7.43;;;3.70;;
14125;SDS011;7141;49.484;11.242;2022-11-23T05:21:30;5.87;;;3.00;;
14125;SDS011;7141;49.484;11.242;2022-11-23T05:23:56;6.97;;;3.10;;
14125;SDS011;7141;49.484;11.242;2022-11-23T05:26:22;6.53;;;2.97;;
14125;SDS011;7141;49.484;11.242;2022-11-23T05:28:48;9.53;;;3.20;;
14125;SDS011;7141;49.484;11.242;2022-11-23T05:31:14;8.70;;;3.80;;
14125;SDS011;7141;49.484;11.242;2022-11-23T05:33:39;9.73;;;4.13;;
14125;SDS011;7141;49.484;11.242;2022-11-23T05:36:06;8.43;;;3.63;;
14125;SDS011;7141;49.484;11.242;2022-11-23T05:38:32;8.50;;;3.50;;
14125;SDS011;7141;49.484;11.242;2022-11-23T05:40:58;8.13;;;4.00;;
14125;SDS011;7141;49.484;11.242;2022-11-23T05:43:23;6.30;;;3.47;;
14125;SDS011;7141;49.484;11.242;2022-11-23T05:45:49;9.67;;;3.90;;
14125;SDS011;7141;49.484;11.242;2022-11-23T05:48:15;8.07;;;3.37;;
14125;SDS011;7141;49.484;11.242;2022-11-23T05:50:41;9.20;;;3.80;;
14125;SDS011;7141;49.484;11.242;2022-11-23T05:53:07;8.70;;;3.63;;
14125;SDS011;7141;49.484;11.242;2022-11-23T05:55:33;9.13;;;3.37;;
14125;SDS011;7141;49.484;11.242;2022-11-23T05:57:59;11.07;;;3.43;;
14125;SDS011;7141;49.484;11.242;2022-11-23T06:00:26;10.27;;;4.03;;
14125;SDS011;7141;49.484;11.242;2022-11-23T06:02:52;6.20;;;3.77;;
14125;SDS011;7141;49.484;11.242;2022-11-23T06:05:23;7.27;;;3.40;;
14125;SDS011;7141;49.484;11.242;2022-11-23T06:07:51;8.60;;;4.97;;
14125;SDS011;7141;49.484;11.242;2022-11-23T06:10:16;10.63;;;6.87;;
14125;SDS011;7141;49.484;11.242;2022-11-23T06:12:42;12.07;;;8.23;;
14125;SDS011;7141;49.484;11.242;2022-11-23T06:15:10;15.33;;;8.83;;
14125;SDS011;7141;49.484;11.242;2022-11-23T06:17:36;16.53;;;8.60;;
14125;SDS011;7141;49.484;11.242;2022-11-23T06:20:03;9.80;;;4.90;;
14125;SDS011;7141;49.484;11.242;2022-11-23T06:22:29;8.00;;;4.40;;
14125;SDS011;7141;49.484;11.242;2022-11-23T06:24:55;7.37;;;3.93;;
14125;SDS011;7141;49.484;11.242;2022-11-23T06:27:21;6.00;;;3.23;;
14125;SDS011;7141;49.484;11.242;2022-11-23T06:29:47;5.90;;;3.57;;
14125;SDS011;7141;49.484;11.242;2022-11-23T06:32:13;5.33;;;3.23;;
14125;SDS011;7141;49.484;11.242;2022-11-23T06:34:39;9.47;;;4.03;;
14125;SDS011;7141;49.484;11.242;2022-11-23T06:37:05;11.10;;;3.73;;
14125;SDS011;7141;49.484;11.242;2022-11-23T06:39:31;8.17;;;3.53;;
14125;SDS011;7141;49.484;11.242;2022-11-23T06:41:57;7.70;;;3.53;;
14125;SDS011;7141;49.484;11.242;2022-11-23T06:44:23;7.30;;;3.83;;
14125;SDS011;7141;49.484;11.242;2022-11-23T06:46:49;7.90;;;3.87;;
14125;SDS011;7141;49.484;11.242;2022-11-23T06:49:15;9.37;;;3.97;;
14125;SDS011;7141;49.484;11.242;2022-11-23T06:51:43;4.97;;;3.53;;
14125;SDS011;7141;49.484;11.242;2022-11-23T06:54:10;5.80;;;3.67;;
14125;SDS011;7141;49.484;11.242;2022-11-23T06:56:36;8.63;;;4.23;;
14125;SDS011;7141;49.484;11.242;2022-11-23T06:59:02;5.90;;;4.13;;
14125;SDS011;7141;49.484;11.242;2022-11-23T07:01:28;6.50;;;4.27;;
14125;SDS011;7141;49.484;11.242;2022-11-23T07:03:54;7.20;;;3.67;;
14125;SDS011;7141;49.484;11.242;2022-11-23T07:06:20;8.00;;;3.97;;
14125;SDS011;7141;49.484;11.242;2022-11-23T07:08:46;5.17;;;3.53;;
14125;SDS011;7141;49.484;11.242;2022-11-23T07:11:12;10.27;;;4.73;;
14125;SDS011;7141;49.484;11.242;2022-11-23T07:13:38;10.33;;;4.40;;
14125;SDS011;7141;49.484;11.242;2022-11-23T07:16:04;8.33;;;3.97;;
14125;SDS011;7141;49.484;11.242;2022-11-23T07:18:31;10.40;;;4.77;;
14125;SDS011;7141;49.484;11.242;2022-11-23T07:20:57;6.23;;;3.97;;
14125;SDS011;7141;49.484;11.242;2022-11-23T07:23:23;6.87;;;4.00;;
14125;SDS011;7141;49.484;11.242;2022-11-23T07:25:49;8.53;;;4.77;;
14125;SDS011;7141;49.484;11.242;2022-11-23T07:28:16;8.60;;;5.13;;
14125;SDS011;7141;49.484;11.242;2022-11-23T07:30:42;9.13;;;4.07;;
14125;SDS011;7141;49.484;11.242;2022-11-23T07:33:09;13.83;;;4.80;;
14125;SDS011;7141;49.484;11.242;2022-11-23T07:35:36;9.50;;;4.00;;
14125;SDS011;7141;49.484;11.242;2022-11-23T07:38:02;6.80;;;3.60;;
14125;SDS011;7141;49.484;11.242;2022-11-23T07:40:30;10.57;;;4.30;;
14125;SDS011;7141;49.484;11.242;2022-11-23T07:42:59;5.97;;;3.30;;
14125;SDS011;7141;49.484;11.242;2022-11-23T07:45:26;8.13;;;3.80;;
14125;SDS011;7141;49.484;11.242;2022-11-23T07:50:24;11.53;;;4.00;;
14125;SDS011;7141;49.484;11.242;2022-11-23T07:52:50;7.03;;;3.77;;
14125;SDS011;7141;49.484;11.242;2022-11-23T07:55:16;6.93;;;3.87;;
14125;SDS011;7141;49.484;11.242;2022-11-23T07:57:42;7.93;;;3.77;;
14125;SDS011;7141;49.484;11.242;2022-11-23T08:00:08;7.13;;;4.63;;
14125;SDS011;7141;49.484;11.242;2022-11-23T08:02:34;8.93;;;4.57;;
14125;SDS011;7141;49.484;11.242;2022-11-23T08:05:00;8.70;;;4.27;;
14125;SDS011;7141;49.484;11.242;2022-11-23T08:07:26;7.30;;;4.43;;
14125;SDS011;7141;49.484;11.242;2022-11-23T08:09:52;8.40;;;4.57;;
14125;SDS011;7141;49.484;11.242;2022-11-23T08:12:18;12.00;;;8.90;;
14125;SDS011;7141;49.484;11.242;2022-11-23T08:14:44;13.47;;;8.97;;
14125;SDS011;7141;49.484;11.242;2022-11-23T08:17:10;13.93;;;8.00;;
14125;SDS011;7141;49.484;11.242;2022-11-23T08:19:36;9.97;;;5.67;;
14125;SDS011;7141;49.484;11.242;2022-11-23T08:22:02;9.90;;;5.73;;
14125;SDS011;7141;49.484;11.242;2022-11-23T08:24:28;12.50;;;5.73;;
14125;SDS011;7141;49.484;11.242;2022-11-23T08:26:54;8.27;;;5.00;;
14125;SDS011;7141;49.484;11.242;2022-11-23T08:29:20;10.33;;;4.47;;
14125;SDS011;7141;49.484;11.242;2022-11-23T08:31:46;9.93;;;5.00;;
14125;SDS011;7141;49.484;11.242;2022-11-23T08:34:12;8.57;;;4.67;;
14125;SDS011;7141;49.484;11.242;2022-11-23T08:36:38;11.33;;;5.07;;
14125;SDS011;7141;49.484;11.242;2022-11-23T08:39:05;10.27;;;5.60;;
14125;SDS011;7141;49.484;11.242;2022-11-23T08:41:31;10.97;;;5.50;;
14125;SDS011;7141;49.484;11.242;2022-11-23T08:43:58;7.43;;;4.60;;
14125;SDS011;7141;49.484;11.242;2022-11-23T08:46:24;8.40;;;4.43;;
14125;SDS011;7141;49.484;11.242;2022-11-23T08:48:50;7.93;;;5.00;;
14125;SDS011;7141;49.484;11.242;2022-11-23T08:51:15;10.47;;;4.80;;
14125;SDS011;7141;49.484;11.242;2022-11-23T08:53:46;6.07;;;3.93;;
14125;SDS011;7141;49.484;11.242;2022-11-23T08:56:12;6.13;;;3.73;;
14125;SDS011;7141;49.484;11.242;2022-11-23T08:58:38;8.23;;;4.07;;
14125;SDS011;7141;49.484;11.242;2022-11-23T09:01:08;7.83;;;3.70;;
14125;SDS011;7141;49.484;11.242;2022-11-23T09:03:34;8.47;;;3.63;;
14125;SDS011;7141;49.484;11.242;2022-11-23T09:06:00;8.53;;;4.50;;
14125;SDS011;7141;49.484;11.242;2022-11-23T09:08:27;6.93;;;3.97;;
14125;SDS011;7141;49.484;11.242;2022-11-23T09:10:53;6.20;;;3.60;;
14125;SDS011;7141;49.484;11.242;2022-11-23T09:13:19;8.90;;;4.23;;
14125;SDS011;7141;49.484;11.242;2022-11-23T09:15:45;9.67;;;4.57;;
14125;SDS011;7141;49.484;11.242;2022-11-23T09:18:11;7.00;;;3.30;;
14125;SDS011;7141;49.484;11.242;2022-11-23T09:20:40;7.60;;;3.40;;
14125;SDS011;7141;49.484;11.242;2022-11-23T09:23:06;9.57;;;4.00;;
14125;SDS011;7141;49.484;11.242;2022-11-23T09:25:32;7.40;;;3.43;;
14125;SDS011;7141;49.484;11.242;2022-11-23T09:27:58;6.57;;;3.70;;
14125;SDS011;7141;49.484;11.242;2022-11-23T09:30:24;6.37;;;3.40;;
14125;SDS011;7141;49.484;11.242;2022-11-23T09:32:50;7.07;;;3.07;;
14125;SDS011;7141;49.484;11.242;2022-11-23T09:35:16;5.80;;;3.37;;
14125;SDS011;7141;49.484;11.242;2022-11-23T09:37:42;8.27;;;3.27;;
14125;SDS011;7141;49.484;11.242;2022-11-23T09:40:09;6.17;;;3.27;;
14125;SDS011;7141;49.484;11.242;2022-11-23T09:50:32;5.90;;;3.63;;
14125;SDS011;7141;49.484;11.242;2022-11-23T09:53:01;7.30;;;3.50;;
14125;SDS011;7141;49.484;11.242;2022-11-23T09:57:55;7.93;;;3.70;;
14125;SDS011;7141;49.484;11.242;2022-11-23T10:00:23;6.57;;;4.07;;
14125;SDS011;7141;49.484;11.242;2022-11-23T10:02:50;9.43;;;3.93;;
14125;SDS011;7141;49.484;11.242;2022-11-23T10:05:21;9.40;;;3.93;;
14125;SDS011;7141;49.484;11.242;2022-11-23T10:24:59;6.97;;;3.33;;
14125;SDS011;7141;49.484;11.242;2022-11-23T10:27:27;8.60;;;3.43;;
14125;SDS011;7141;49.484;11.242;2022-11-23T10:29:54;7.37;;;2.67;;
14125;SDS011;7141;49.484;11.242;2022-11-23T10:32:30;6.93;;;3.10;;
14125;SDS011;7141;49.484;11.242;2022-11-23T10:35:01;8.73;;;3.03;;
14125;SDS011;7141;49.484;11.242;2022-11-23T10:37:29;6.27;;;3.13;;
14125;SDS011;7141;49.484;11.242;2022-11-23T10:39:55;8.07;;;2.70;;
14125;SDS011;7141;49.484;11.242;2022-11-23T10:44:50;4.57;;;2.93;;
14125;SDS011;7141;49.484;11.242;2022-11-23T10:47:32;8.37;;;3.73;;
14125;SDS011;7141;49.484;11.242;2022-11-23T10:49:58;6.43;;;3.53;;
14125;SDS011;7141;49.484;11.242;2022-11-23T10:54:52;4.40;;;3.07;;
14125;SDS011;7141;49.484;11.242;2022-11-23T11:02:37;4.93;;;2.90;;
14125;SDS011;7141;49.484;11.242;2022-11-23T11:07:44;7.67;;;2.90;;
14125;SDS011;7141;49.484;11.242;2022-11-23T11:12:55;7.63;;;3.00;;
14125;SDS011;7141;49.484;11.242;2022-11-23T11:15:21;8.03;;;3.63;;
14125;SDS011;7141;49.484;11.242;2022-11-23T11:17:57;7.73;;;2.77;;
14125;SDS011;7141;49.484;11.242;2022-11-23T11:23:02;9.70;;;3.60;;
14125;SDS011;7141;49.484;11.242;2022-11-23T11:25:30;8.67;;;3.70;;
14125;SDS011;7141;49.484;11.242;2022-11-23T11:27:56;7.27;;;3.30;;
14125;SDS011;7141;49.484;11.242;2022-11-23T11:30:23;5.43;;;2.90;;
14125;SDS011;7141;49.484;11.242;2022-11-23T11:35:23;6.73;;;3.40;;
14125;SDS011;7141;49.484;11.242;2022-11-23T11:37:50;9.70;;;3.17;;
14125;SDS011;7141;49.484;11.242;2022-11-23T11:40:34;5.93;;;3.00;;
14125;SDS011;7141;49.484;11.242;2022-11-23T11:43:22;7.50;;;3.50;;
14125;SDS011;7141;49.484;11.242;2022-11-23T11:45:52;7.37;;;3.20;;
14125;SDS011;7141;49.484;11.242;2022-11-23T11:48:19;5.50;;;2.87;;
14125;SDS011;7141;49.484;11.242;2022-11-23T11:50:51;5.77;;;3.07;;
14125;SDS011;7141;49.484;11.242;2022-11-23T11:53:18;8.63;;;3.20;;
14125;SDS011;7141;49.484;11.242;2022-11-23T11:55:57;9.47;;;4.07;;
14125;SDS011;7141;49.484;11.242;2022-11-23T11:58:24;7.93;;;2.97;;
14125;SDS011;7141;49.484;11.242;2022-11-23T12:00:52;5.70;;;3.63;;
14125;SDS011;7141;49.484;11.242;2022-11-23T12:03:39;6.07;;;3.50;;
14125;SDS011;7141;49.484;11.242;2022-11-23T12:06:08;9.27;;;4.23;;
14125;SDS011;7141;49.484;11.242;2022-11-23T12:08:46;10.10;;;3.93;;
14125;SDS011;7141;49.484;11.242;2022-11-23T12:11:14;14.27;;;4.47;;
14125;SDS011;7141;49.484;11.242;2022-11-23T12:13:41;10.13;;;4.37;;
14125;SDS011;7141;49.484;11.242;2022-11-23T12:18:45;7.93;;;4.27;;
14125;SDS011;7141;49.484;11.242;2022-11-23T12:21:16;7.83;;;4.20;;
14125;SDS011;7141;49.484;11.242;2022-11-23T12:28:50;5.17;;;3.30;;
14125;SDS011;7141;49.484;11.242;2022-11-23T12:31:28;8.23;;;3.53;;
14125;SDS011;7141;49.484;11.242;2022-11-23T12:34:25;7.83;;;2.63;;
14125;SDS011;7141;49.484;11.242;2022-11-23T12:42:19;5.23;;;2.90;;
14125;SDS011;7141;49.484;11.242;2022-11-23T12:45:01;7.37;;;3.43;;
14125;SDS011;7141;49.484;11.242;2022-11-23T12:50:19;7.87;;;2.40;;
14125;SDS011;7141;49.484;11.242;2022-11-23T12:57:42;6.43;;;2.57;;
14125;SDS011;7141;49.484;11.242;2022-11-23T13:00:18;5.93;;;2.50;;
14125;SDS011;7141;49.484;11.242;2022-11-23T13:02:52;5.73;;;2.80;;
14125;SDS011;7141;49.484;11.242;2022-11-23T13:08:18;5.97;;;2.60;;
14125;SDS011;7141;49.484;11.242;2022-11-23T13:10:52;6.33;;;2.50;;
14125;SDS011;7141;49.484;11.242;2022-11-23T13:13:22;8.43;;;2.63;;
14125;SDS011;7141;49.484;11.242;2022-11-23T13:23:38;6.33;;;2.40;;
14125;SDS011;7141;49.484;11.242;2022-11-23T13:26:11;4.60;;;2.30;;
14125;SDS011;7141;49.484;11.242;2022-11-23T13:28:38;5.77;;;2.57;;
14125;SDS011;7141;49.484;11.242;2022-11-23T13:31:46;4.50;;;2.30;;
14125;SDS011;7141;49.484;11.242;2022-11-23T13:33:55;4.47;;;2.03;;
14125;SDS011;7141;49.484;11.242;2022-11-23T13:38:54;5.00;;;2.90;;
14125;SDS011;7141;49.484;11.242;2022-11-23T13:46:36;5.90;;;2.83;;
14125;SDS011;7141;49.484;11.242;2022-11-23T13:49:04;5.20;;;2.80;;
14125;SDS011;7141;49.484;11.242;2022-11-23T13:52:02;4.00;;;2.67;;
14125;SDS011;7141;49.484;11.242;2022-11-23T13:54:28;5.20;;;2.73;;
14125;SDS011;7141;49.484;11.242;2022-11-23T13:56:58;4.00;;;2.93;;
14125;SDS011;7141;49.484;11.242;2022-11-23T13:59:27;7.17;;;2.80;;
14125;SDS011;7141;49.484;11.242;2022-11-23T14:04:26;3.70;;;2.73;;
14125;SDS011;7141;49.484;11.242;2022-11-23T14:06:57;7.23;;;3.30;;
14125;SDS011;7141;49.484;11.242;2022-11-23T14:12:05;5.77;;;2.80;;
14125;SDS011;7141;49.484;11.242;2022-11-23T14:14:33;5.73;;;3.17;;
14125;SDS011;7141;49.484;11.242;2022-11-23T14:17:14;6.97;;;2.80;;
14125;SDS011;7141;49.484;11.242;2022-11-23T14:22:15;7.17;;;3.40;;
14125;SDS011;7141;49.484;11.242;2022-11-23T14:27:37;7.53;;;3.60;;
14125;SDS011;7141;49.484;11.242;2022-11-23T14:42:57;6.70;;;3.73;;
14125;SDS011;7141;49.484;11.242;2022-11-23T14:45:34;6.80;;;3.50;;
14125;SDS011;7141;49.484;11.242;2022-11-23T14:50:46;9.00;;;3.97;;
14125;SDS011;7141;49.484;11.242;2022-11-23T14:53:18;9.97;;;4.10;;
14125;SDS011;7141;49.484;11.242;2022-11-23T14:55:44;7.17;;;4.23;;
14125;SDS011;7141;49.484;11.242;2022-11-23T14:58:12;8.00;;;4.47;;
14125;SDS011;7141;49.484;11.242;2022-11-23T15:00:40;5.23;;;3.27;;
14125;SDS011;7141;49.484;11.242;2022-11-23T15:03:12;7.60;;;4.00;;
14125;SDS011;7141;49.484;11.242;2022-11-23T15:05:45;4.83;;;3.50;;
14125;SDS011;7141;49.484;11.242;2022-11-23T15:08:16;6.23;;;3.77;;
14125;SDS011;7141;49.484;11.242;2022-11-23T15:13:28;10.40;;;3.53;;
14125;SDS011;7141;49.484;11.242;2022-11-23T15:15:55;7.23;;;3.70;;
14125;SDS011;7141;49.484;11.242;2022-11-23T15:18:28;8.67;;;3.57;;
14125;SDS011;7141;49.484;11.242;2022-11-23T15:20:55;7.77;;;3.70;;
14125;SDS011;7141;49.484;11.242;2022-11-23T15:23:22;7.30;;;3.70;;
14125;SDS011;7141;49.484;11.242;2022-11-23T15:25:49;7.70;;;3.93;;
14125;SDS011;7141;49.484;11.242;2022-11-23T15:28:16;8.73;;;3.83;;
14125;SDS011;7141;49.484;11.242;2022-11-23T15:30:43;9.23;;;4.20;;
14125;SDS011;7141;49.484;11.242;2022-11-23T15:33:09;6.47;;;3.57;;
14125;SDS011;7141;49.484;11.242;2022-11-23T15:35:37;7.97;;;4.67;;
14125;SDS011;7141;49.484;11.242;2022-11-23T15:38:03;10.40;;;5.73;;
14125;SDS011;7141;49.484;11.242;2022-11-23T15:40:32;8.10;;;4.97;;
14125;SDS011;7141;49.484;11.242;2022-11-23T15:42:59;8.07;;;5.63;;
14125;SDS011;7141;49.484;11.242;2022-11-23T15:45:36;10.40;;;5.47;;
14125;SDS011;7141;49.484;11.242;2022-11-23T15:48:03;11.23;;;5.93;;
14125;SDS011;7141;49.484;11.242;2022-11-23T15:50:29;9.97;;;5.80;;
14125;SDS011;7141;49.484;11.242;2022-11-23T15:52:57;8.97;;;5.63;;
14125;SDS011;7141;49.484;11.242;2022-11-23T15:55:23;11.80;;;6.13;;
14125;SDS011;7141;49.484;11.242;2022-11-23T15:57:53;12.23;;;6.70;;
14125;SDS011;7141;49.484;11.242;2022-11-23T16:00:20;9.47;;;6.20;;
14125;SDS011;7141;49.484;11.242;2022-11-23T16:02:47;12.00;;;6.03;;
14125;SDS011;7141;49.484;11.242;2022-11-23T16:10:25;9.07;;;6.33;;
14125;SDS011;7141;49.484;11.242;2022-11-23T16:20:52;11.13;;;7.60;;
14125;SDS011;7141;49.484;11.242;2022-11-23T16:23:20;11.43;;;6.97;;
14125;SDS011;7141;49.484;11.242;2022-11-23T16:25:59;9.83;;;6.93;;
14125;SDS011;7141;49.484;11.242;2022-11-23T16:28:27;17.23;;;7.50;;
14125;SDS011;7141;49.484;11.242;2022-11-23T16:30:54;11.63;;;7.73;;
14125;SDS011;7141;49.484;11.242;2022-11-23T16:33:21;11.60;;;7.60;;
14125;SDS011;7141;49.484;11.242;2022-11-23T16:35:47;11.27;;;7.30;;
14125;SDS011;7141;49.484;11.242;2022-11-23T16:38:13;13.57;;;7.73;;
14125;SDS011;7141;49.484;11.242;2022-11-23T16:40:40;12.37;;;7.80;;
14125;SDS011;7141;49.484;11.242;2022-11-23T16:43:07;11.43;;;8.37;;
14125;SDS011;7141;49.484;11.242;2022-11-23T16:45:33;12.27;;;7.67;;
14125;SDS011;7141;49.484;11.242;2022-11-23T16:48:00;13.30;;;8.17;;
14125;SDS011;7141;49.484;11.242;2022-11-23T16:50:28;19.57;;;9.20;;
14125;SDS011;7141;49.484;11.242;2022-11-23T16:52:54;13.77;;;8.03;;
14125;SDS011;7141;49.484;11.242;2022-11-23T16:55:20;17.50;;;7.97;;
14125;SDS011;7141;49.484;11.242;2022-11-23T16:57:46;12.80;;;8.63;;
14125;SDS011;7141;49.484;11.242;2022-11-23T17:00:14;14.27;;;8.27;;
14125;SDS011;7141;49.484;11.242;2022-11-23T17:02:41;16.03;;;8.20;;
14125;SDS011;7141;49.484;11.242;2022-11-23T17:05:16;15.13;;;8.90;;
14125;SDS011;7141;49.484;11.242;2022-11-23T17:07:43;15.03;;;8.97;;